Time;durP1;ratioP1;P1;durP2;ratioP2;P2;SDS_P1;SDS_P2;PMS_P1;PMS_P2;Temp;Humidity;BMP_temperature;BMP_pressure;BME280_temperature;BME280_humidity;BME280_pressure;Samples;Min_cycle;Max_cycle;Signal;HPM_P1;HPM_P2
2022/07/25 00:00:40;;;;;;;8.88;5.60;;;22.60;61.60;;;;;;4885403;29;20419;-65
2022/07/25 00:03:07;;;;;;;8.40;5.10;;;22.60;61.70;;;;;;4886555;29;20080;-63
2022/07/25 00:05:40;;;;;;;10.38;5.60;;;22.60;61.80;;;;;;4879788;29;20079;-65
2022/07/25 00:08:07;;;;;;;8.45;5.50;;;22.50;62.00;;;;;;4887382;29;20063;-64
2022/07/25 00:10:34;;;;;;;9.65;5.03;;;22.50;61.60;;;;;;4887099;29;20670;-63
2022/07/25 00:13:01;;;;;;;8.27;5.15;;;22.50;61.50;;;;;;4884346;29;20048;-65
2022/07/25 00:15:30;;;;;;;9.63;5.25;;;22.50;61.70;;;;;;4885590;29;20547;-64
2022/07/25 00:17:57;;;;;;;6.82;4.85;;;22.40;61.80;;;;;;4885966;29;20048;-65
2022/07/25 00:20:24;;;;;;;7.63;5.13;;;22.50;61.50;;;;;;4878767;29;20045;-65
2022/07/25 00:22:51;;;;;;;8.82;4.85;;;22.50;61.40;;;;;;4884945;29;20168;-63
2022/07/25 00:25:17;;;;;;;9.18;4.85;;;22.40;61.30;;;;;;4886776;29;20503;-65
2022/07/25 00:27:44;;;;;;;9.77;4.47;;;22.40;61.40;;;;;;4885253;29;20048;-66
2022/07/25 00:30:12;;;;;;;9.15;4.82;;;22.50;61.10;;;;;;4876529;29;20535;-65
2022/07/25 00:32:40;;;;;;;8.32;4.88;;;22.40;61.40;;;;;;4880563;29;20072;-64
2022/07/25 00:35:08;;;;;;;8.70;5.13;;;22.30;61.60;;;;;;4884363;29;20071;-64
2022/07/25 00:37:35;;;;;;;10.05;5.90;;;22.30;61.80;;;;;;4885818;29;21987;-64
2022/07/25 00:40:02;;;;;;;10.30;5.82;;;22.20;62.00;;;;;;4882782;29;20062;-64
2022/07/25 00:42:29;;;;;;;12.98;5.15;;;22.20;62.10;;;;;;4889583;29;20056;-65
2022/07/25 00:44:56;;;;;;;11.65;5.50;;;22.20;62.20;;;;;;4882812;29;20415;-64
2022/07/25 00:47:25;;;;;;;7.65;4.90;;;22.20;62.40;;;;;;4890037;29;20053;-64
2022/07/25 00:49:53;;;;;;;9.35;5.03;;;22.10;62.50;;;;;;4888892;29;20065;-66
2022/07/25 00:52:20;;;;;;;10.73;5.65;;;22.10;62.60;;;;;;4877621;29;20082;-65
2022/07/25 00:54:47;;;;;;;7.88;4.78;;;22.10;62.70;;;;;;4893288;29;20066;-66
2022/07/25 00:57:14;;;;;;;7.90;5.07;;;22.10;62.90;;;;;;4882946;29;20061;-66
2022/07/25 00:59:40;;;;;;;8.30;4.55;;;22.00;63.00;;;;;;4887085;29;20044;-64
2022/07/25 01:02:07;;;;;;;8.05;4.78;;;22.10;62.80;;;;;;4879594;29;20064;-63
2022/07/25 01:04:34;;;;;;;15.65;6.10;;;22.10;62.80;;;;;;4881682;29;20490;-65
2022/07/25 01:07:03;;;;;;;8.38;5.28;;;22.00;62.90;;;;;;4882881;29;20064;-65
2022/07/25 01:09:30;;;;;;;11.00;5.13;;;22.00;63.00;;;;;;4884592;29;20496;-64
2022/07/25 01:11:57;;;;;;;8.43;4.55;;;21.90;63.20;;;;;;4881322;29;20375;-65
2022/07/25 01:14:24;;;;;;;9.80;5.25;;;21.90;63.40;;;;;;4891272;29;20052;-64
2022/07/25 01:16:51;;;;;;;7.68;4.63;;;21.90;63.50;;;;;;4892614;29;20059;-65
2022/07/25 01:19:19;;;;;;;8.45;5.05;;;21.80;63.50;;;;;;4887699;29;20063;-66
2022/07/25 01:21:47;;;;;;;9.75;5.13;;;21.80;63.60;;;;;;4881393;29;20053;-64
2022/07/25 01:24:14;;;;;;;8.63;4.55;;;21.80;63.70;;;;;;4887146;29;20080;-65
2022/07/25 01:26:41;;;;;;;8.27;4.38;;;21.70;63.90;;;;;;4883348;29;20401;-64
2022/07/25 01:29:08;;;;;;;8.02;5.05;;;21.70;63.60;;;;;;4886815;29;20052;-64
2022/07/25 01:31:35;;;;;;;9.70;4.63;;;21.70;63.80;;;;;;4891522;29;20049;-65
2022/07/25 01:34:02;;;;;;;7.82;5.00;;;21.70;63.70;;;;;;4891180;29;20051;-65
2022/07/25 01:36:29;;;;;;;8.50;5.13;;;21.70;63.80;;;;;;4893226;29;20062;-63
2022/07/25 01:38:57;;;;;;;7.07;4.55;;;21.60;64.00;;;;;;4891051;29;20075;-65
2022/07/25 01:41:24;;;;;;;7.65;4.68;;;21.60;64.10;;;;;;4891667;29;20052;-64
2022/07/25 01:43:51;;;;;;;8.35;4.78;;;21.60;64.00;;;;;;4891400;29;20060;-64
2022/07/25 01:46:18;;;;;;;9.38;4.65;;;21.60;64.00;;;;;;4891417;29;20052;-64
2022/07/25 01:48:45;;;;;;;9.45;4.80;;;21.60;64.20;;;;;;4880511;29;20048;-65
2022/07/25 01:51:12;;;;;;;6.32;4.13;;;21.50;64.40;;;;;;4889327;29;20056;-66
2022/07/25 01:53:39;;;;;;;7.13;4.28;;;21.40;64.60;;;;;;4876671;29;20175;-65
2022/07/25 01:56:08;;;;;;;7.13;4.43;;;21.40;64.70;;;;;;4879234;29;20048;-65
2022/07/25 01:58:35;;;;;;;7.32;4.32;;;21.40;64.50;;;;;;4878304;29;20060;-66
2022/07/25 02:01:02;;;;;;;8.13;4.57;;;21.40;64.50;;;;;;4879495;29;20596;-65
2022/07/25 02:03:31;;;;;;;7.25;4.70;;;21.30;64.60;;;;;;4884721;29;20051;-65
2022/07/25 02:06:00;;;;;;;8.00;4.85;;;21.30;64.80;;;;;;4882631;29;20155;-64
2022/07/25 02:08:28;;;;;;;8.38;4.65;;;21.30;64.90;;;;;;4874784;29;20136;-65
2022/07/25 02:10:55;;;;;;;8.05;4.72;;;21.30;65.00;;;;;;4882697;29;20061;-64
2022/07/25 02:13:24;;;;;;;8.55;4.45;;;21.20;65.10;;;;;;4883787;29;20432;-65
2022/07/25 02:15:51;;;;;;;8.03;4.83;;;21.20;65.20;;;;;;4882948;29;20068;-64
2022/07/25 02:18:18;;;;;;;9.18;5.07;;;21.10;65.30;;;;;;4885579;29;20055;-64
2022/07/25 02:20:45;;;;;;;6.97;4.53;;;21.10;65.50;;;;;;4879061;29;20067;-64
2022/07/25 02:23:12;;;;;;;8.90;4.50;;;21.10;65.70;;;;;;4875781;29;20056;-65
2022/07/25 02:25:39;;;;;;;8.95;5.18;;;21.10;65.60;;;;;;4877145;29;20070;-65
2022/07/25 02:28:06;;;;;;;8.48;4.93;;;21.10;65.60;;;;;;4882564;29;20912;-66
2022/07/25 02:30:34;;;;;;;8.07;4.80;;;21.10;65.40;;;;;;4884144;29;20057;-65
2022/07/25 02:33:01;;;;;;;7.72;4.60;;;21.10;65.50;;;;;;4884065;29;20064;-65
2022/07/25 02:35:28;;;;;;;9.05;5.10;;;21.00;65.60;;;;;;4884890;29;20060;-66
2022/07/25 02:37:55;;;;;;;9.40;4.70;;;21.00;65.80;;;;;;4883096;29;20392;-65
2022/07/25 02:40:22;;;;;;;8.15;4.38;;;20.90;65.90;;;;;;4885249;29;20067;-65
2022/07/25 02:42:49;;;;;;;7.05;4.40;;;20.90;65.80;;;;;;4883116;29;20664;-66
2022/07/25 02:45:16;;;;;;;7.22;4.50;;;21.00;65.80;;;;;;4884917;29;20067;-65
2022/07/25 02:47:44;;;;;;;7.22;4.53;;;20.90;65.70;;;;;;4884177;29;20059;-69
2022/07/25 02:50:11;;;;;;;6.68;4.38;;;20.90;65.80;;;;;;4884802;29;20064;-65
2022/07/25 02:52:38;;;;;;;8.40;4.57;;;20.90;65.80;;;;;;4879839;29;20041;-64
2022/07/25 02:55:06;;;;;;;8.40;4.90;;;20.90;65.80;;;;;;4876403;29;20052;-66
2022/07/25 02:57:33;;;;;;;7.38;4.97;;;20.90;65.90;;;;;;4884676;29;20056;-65
2022/07/25 03:00:00;;;;;;;7.43;4.35;;;20.90;65.90;;;;;;4881941;29;20542;-65
2022/07/25 03:02:27;;;;;;;7.68;4.65;;;20.80;65.90;;;;;;4881380;29;20060;-64
2022/07/25 03:04:55;;;;;;;8.38;5.10;;;20.80;66.10;;;;;;4884484;29;20510;-66
2022/07/25 03:07:22;;;;;;;8.30;4.70;;;20.80;66.20;;;;;;4885333;29;20052;-64
2022/07/25 03:09:49;;;;;;;7.65;4.68;;;20.70;66.40;;;;;;4885289;29;20068;-65
2022/07/25 03:12:16;;;;;;;8.65;5.03;;;20.70;66.50;;;;;;4879000;29;20048;-63
2022/07/25 03:14:43;;;;;;;7.90;4.95;;;20.60;66.70;;;;;;4873331;29;20059;-66
2022/07/25 03:17:10;;;;;;;8.50;4.97;;;20.60;66.70;;;;;;4881897;29;20056;-64
2022/07/25 03:19:37;;;;;;;9.43;4.70;;;20.60;66.80;;;;;;4875532;29;20520;-68
2022/07/25 03:22:05;;;;;;;8.43;5.13;;;20.60;66.90;;;;;;4866736;29;20063;-64
2022/07/25 03:24:32;;;;;;;7.63;4.72;;;20.60;67.40;;;;;;4882654;29;20045;-63
2022/07/25 03:26:59;;;;;;;9.70;5.07;;;20.70;66.90;;;;;;4882596;29;20297;-64
2022/07/25 03:29:26;;;;;;;10.15;4.90;;;20.80;66.90;;;;;;4882382;29;20061;-65
2022/07/25 03:31:52;;;;;;;10.13;5.80;;;20.80;66.90;;;;;;4880787;29;20067;-64
2022/07/25 03:34:20;;;;;;;8.57;4.47;;;20.80;66.80;;;;;;4878665;29;20049;-66
2022/07/25 03:36:46;;;;;;;10.07;4.70;;;20.80;66.10;;;;;;4871432;29;20056;-65
2022/07/25 03:39:15;;;;;;;10.98;5.35;;;20.90;65.80;;;;;;4877397;29;20053;-64
2022/07/25 03:41:42;;;;;;;7.93;4.32;;;20.80;66.10;;;;;;4877751;29;20060;-65
2022/07/25 03:44:09;;;;;;;7.57;4.50;;;20.70;65.90;;;;;;4876005;29;20131;-65
2022/07/25 03:46:36;;;;;;;7.70;5.30;;;20.80;65.70;;;;;;4874930;29;20048;-64
2022/07/25 03:49:03;;;;;;;10.70;5.18;;;20.70;65.70;;;;;;4879811;29;20143;-65
2022/07/25 03:51:30;;;;;;;7.57;4.75;;;20.80;65.40;;;;;;4879491;29;20112;-63
2022/07/25 03:54:02;;;;;;;7.63;4.53;;;20.70;65.60;;;;;;4880601;29;20059;-63
2022/07/25 03:56:32;;;;;;;8.07;5.07;;;20.70;65.80;;;;;;4879354;29;20075;-63
2022/07/25 03:58:59;;;;;;;8.20;4.47;;;20.60;65.60;;;;;;4873710;29;20071;-63
2022/07/25 04:01:26;;;;;;;9.07;4.93;;;20.60;65.70;;;;;;4877196;29;20053;-63
2022/07/25 04:03:53;;;;;;;9.13;4.75;;;20.60;65.80;;;;;;4870028;29;20632;-65
2022/07/25 04:06:20;;;;;;;8.73;5.30;;;20.60;66.00;;;;;;4867786;29;20069;-66
2022/07/25 04:08:47;;;;;;;8.05;4.70;;;20.50;66.10;;;;;;4861300;29;20052;-64
2022/07/25 04:11:14;;;;;;;10.43;4.63;;;20.60;66.10;;;;;;4873209;29;20897;-64
2022/07/25 04:13:42;;;;;;;7.85;4.55;;;20.50;66.20;;;;;;4878439;29;20059;-63
2022/07/25 04:16:10;;;;;;;8.80;4.50;;;20.60;66.20;;;;;;4884919;29;20057;-64
2022/07/25 04:18:37;;;;;;;7.90;4.60;;;20.60;65.90;;;;;;4884977;29;20053;-64
2022/07/25 04:21:04;;;;;;;9.05;5.18;;;20.70;66.00;;;;;;4885945;29;20379;-66
2022/07/25 04:23:31;;;;;;;8.77;4.72;;;20.80;66.00;;;;;;4889295;29;20045;-65
2022/07/25 04:25:58;;;;;;;8.38;4.55;;;20.70;66.20;;;;;;4879247;29;20201;-64
2022/07/25 04:28:25;;;;;;;13.30;4.78;;;20.70;65.90;;;;;;4889246;29;20414;-64
2022/07/25 04:30:55;;;;;;;9.02;5.03;;;20.70;66.00;;;;;;4887533;29;20052;-64
2022/07/25 04:33:22;;;;;;;11.10;4.88;;;20.70;66.00;;;;;;4877882;29;21154;-64
2022/07/25 04:35:49;;;;;;;6.70;4.22;;;20.80;65.90;;;;;;4885537;29;20059;-64
2022/07/25 04:38:16;;;;;;;7.70;4.80;;;20.80;65.80;;;;;;4882246;29;20415;-64
2022/07/25 04:40:43;;;;;;;7.95;4.50;;;20.90;65.50;;;;;;4888715;29;20061;-64
2022/07/25 04:43:10;;;;;;;9.93;4.90;;;20.90;65.80;;;;;;4886045;29;20071;-63
2022/07/25 04:45:37;;;;;;;9.90;4.95;;;20.90;65.90;;;;;;4882131;29;20468;-65
2022/07/25 04:48:06;;;;;;;7.50;4.60;;;20.80;66.00;;;;;;4886837;29;20056;-65
2022/07/25 04:50:33;;;;;;;8.00;5.03;;;20.90;66.30;;;;;;4879588;29;20051;-64
2022/07/25 04:53:00;;;;;;;7.95;3.83;;;20.80;66.00;;;;;;4889767;29;20052;-62
2022/07/25 04:55:27;;;;;;;7.00;4.15;;;21.00;65.80;;;;;;4885832;29;20052;-64
2022/07/25 04:57:54;;;;;;;8.43;4.28;;;21.00;66.00;;;;;;4880789;29;20060;-63
2022/07/25 05:00:22;;;;;;;7.10;4.60;;;21.00;65.60;;;;;;4882021;29;20405;-64
2022/07/25 05:02:50;;;;;;;7.63;4.63;;;21.10;65.70;;;;;;4883777;29;20144;-63
2022/07/25 05:05:19;;;;;;;7.82;4.22;;;21.00;65.50;;;;;;4894036;29;20059;-64
2022/07/25 05:07:46;;;;;;;8.73;5.13;;;21.10;65.60;;;;;;4875153;29;20061;-64
2022/07/25 05:10:13;;;;;;;9.95;4.80;;;21.10;65.60;;;;;;4879792;29;20065;-65
2022/07/25 05:12:40;;;;;;;7.82;4.82;;;21.10;65.50;;;;;;4887701;29;20068;-66
2022/07/25 05:15:08;;;;;;;12.52;5.95;;;21.10;65.40;;;;;;4881778;29;20059;-64
2022/07/25 05:17:35;;;;;;;8.85;4.60;;;21.00;65.60;;;;;;4890517;29;20049;-64
2022/07/25 05:20:02;;;;;;;10.68;5.15;;;20.90;65.90;;;;;;4886097;29;20058;-63
2022/07/25 05:22:30;;;;;;;13.60;4.63;;;21.00;65.60;;;;;;4882865;29;20488;-65
2022/07/25 05:24:57;;;;;;;7.70;4.35;;;21.00;65.20;;;;;;4881226;29;20137;-65
2022/07/25 05:27:24;;;;;;;7.47;4.43;;;21.00;65.50;;;;;;4890318;29;20053;-62
2022/07/25 05:29:52;;;;;;;7.65;5.03;;;21.00;65.50;;;;;;4890749;29;20112;-63
2022/07/25 05:32:19;;;;;;;7.55;4.90;;;21.00;65.40;;;;;;4881997;29;20164;-64
2022/07/25 05:34:46;;;;;;;8.63;5.10;;;21.00;65.50;;;;;;4874991;29;20060;-63
2022/07/25 05:37:13;;;;;;;7.72;4.75;;;21.00;66.00;;;;;;4888183;29;20494;-64
2022/07/25 05:39:42;;;;;;;7.95;4.80;;;21.00;66.20;;;;;;4881950;29;20059;-65
2022/07/25 05:42:09;;;;;;;7.33;4.70;;;21.00;66.40;;;;;;4887470;29;20171;-66
2022/07/25 05:44:36;;;;;;;7.22;4.35;;;21.00;66.80;;;;;;4872873;29;20061;-64
2022/07/25 05:47:03;;;;;;;9.70;4.68;;;21.00;66.80;;;;;;4887298;29;20341;-64
2022/07/25 05:49:30;;;;;;;10.70;4.35;;;21.00;66.90;;;;;;4888673;29;20135;-64
2022/07/25 05:51:57;;;;;;;8.52;4.47;;;21.00;66.70;;;;;;4882134;29;20053;-63
2022/07/25 05:54:24;;;;;;;7.80;4.50;;;21.10;66.40;;;;;;4888978;29;20044;-65
2022/07/25 05:56:52;;;;;;;7.03;4.28;;;21.20;66.20;;;;;;4883925;29;20666;-64
2022/07/25 05:59:19;;;;;;;8.30;4.40;;;21.20;66.20;;;;;;4884714;29;20048;-64
2022/07/25 06:01:46;;;;;;;7.35;4.57;;;21.30;66.10;;;;;;4885812;29;20140;-63
2022/07/25 06:04:13;;;;;;;8.80;4.40;;;21.40;65.90;;;;;;4889292;29;20135;-65
2022/07/25 06:06:40;;;;;;;8.25;4.03;;;21.50;65.70;;;;;;4886366;29;20059;-65
2022/07/25 06:09:07;;;;;;;7.72;4.47;;;21.50;65.80;;;;;;4889103;29;20131;-63
2022/07/25 06:11:34;;;;;;;5.95;3.70;;;21.60;66.10;;;;;;4889494;29;20446;-64
2022/07/25 06:14:02;;;;;;;6.85;4.30;;;21.60;66.20;;;;;;4888929;29;20056;-65
2022/07/25 06:16:29;;;;;;;6.95;4.15;;;21.60;66.00;;;;;;4888412;29;20056;-63
2022/07/25 06:18:56;;;;;;;8.18;4.18;;;21.60;66.00;;;;;;4888042;29;20052;-65
2022/07/25 06:21:23;;;;;;;8.77;4.05;;;21.70;66.10;;;;;;4889398;29;20124;-65
2022/07/25 06:23:50;;;;;;;9.93;4.43;;;21.70;65.80;;;;;;4882062;29;20056;-64
2022/07/25 06:26:17;;;;;;;8.75;3.90;;;21.70;66.00;;;;;;4884009;29;20055;-64
2022/07/25 06:28:44;;;;;;;7.93;4.38;;;21.80;65.90;;;;;;4884652;29;20427;-64
2022/07/25 06:31:13;;;;;;;6.53;3.95;;;21.80;65.90;;;;;;4888033;29;20096;-64
2022/07/25 06:33:41;;;;;;;8.43;4.95;;;21.80;66.10;;;;;;4887162;29;20049;-64
2022/07/25 06:36:08;;;;;;;6.68;4.55;;;21.90;66.00;;;;;;4887594;29;20048;-64
2022/07/25 06:38:35;;;;;;;7.60;4.45;;;22.00;65.80;;;;;;4888193;29;20108;-64
2022/07/25 06:41:02;;;;;;;8.63;4.93;;;22.10;65.70;;;;;;4887236;29;20052;-64
2022/07/25 06:43:29;;;;;;;7.95;4.75;;;22.10;65.70;;;;;;4882383;29;20060;-64
2022/07/25 06:45:56;;;;;;;8.02;4.75;;;22.20;65.70;;;;;;4878726;29;20065;-64
2022/07/25 06:48:25;;;;;;;7.85;4.28;;;22.30;65.60;;;;;;4888424;29;20053;-64
2022/07/25 06:50:52;;;;;;;8.43;4.38;;;22.50;65.40;;;;;;4861619;29;20072;-65
2022/07/25 06:53:19;;;;;;;9.18;4.55;;;22.60;65.30;;;;;;4874601;29;20112;-64
2022/07/25 06:55:46;;;;;;;7.80;4.60;;;22.70;64.70;;;;;;4883087;29;20143;-65
2022/07/25 06:58:13;;;;;;;8.52;4.80;;;22.90;64.60;;;;;;4885214;29;20400;-62
2022/07/25 07:00:40;;;;;;;9.27;5.20;;;23.00;64.40;;;;;;4880866;29;20522;-62
2022/07/25 07:03:07;;;;;;;11.10;5.22;;;23.20;64.10;;;;;;4886575;29;20052;-66
2022/07/25 07:05:36;;;;;;;9.20;5.35;;;23.30;64.00;;;;;;4887113;29;20068;-64
2022/07/25 07:08:03;;;;;;;7.43;4.68;;;23.50;64.00;;;;;;4887824;29;20052;-62
2022/07/25 07:10:30;;;;;;;10.75;5.95;;;23.60;63.20;;;;;;4886145;29;20503;-64
2022/07/25 07:13:06;;;;;;;9.48;5.35;;;23.80;63.10;;;;;;4885255;29;20188;-64
2022/07/25 07:15:33;;;;;;;10.20;5.88;;;24.00;62.40;;;;;;4877540;29;20059;-65
2022/07/25 07:18:00;;;;;;;10.23;5.90;;;24.10;62.40;;;;;;4879002;29;20055;-63
2022/07/25 07:20:28;;;;;;;9.05;6.38;;;24.30;61.80;;;;;;4886096;29;20135;-63
2022/07/25 07:22:56;;;;;;;15.68;6.32;;;24.50;61.30;;;;;;4884888;29;20550;-63
2022/07/25 07:25:23;;;;;;;9.93;6.20;;;24.60;61.10;;;;;;4882881;29;20088;-63
2022/07/25 07:27:51;;;;;;;13.75;6.93;;;24.80;60.80;;;;;;4884053;29;20270;-62
2022/07/25 07:30:19;;;;;;;11.82;6.57;;;25.00;60.30;;;;;;4887861;29;20056;-63
2022/07/25 07:32:46;;;;;;;10.95;6.10;;;25.20;60.10;;;;;;4887158;29;20105;-64
2022/07/25 07:35:16;;;;;;;13.15;6.40;;;25.40;59.50;;;;;;4887807;29;22041;-64
2022/07/25 07:37:44;;;;;;;12.52;5.93;;;25.50;59.50;;;;;;4882942;29;20052;-69
2022/07/25 07:40:13;;;;;;;10.80;6.20;;;25.60;59.40;;;;;;4884040;29;20064;-62
2022/07/25 07:42:40;;;;;;;;;;;25.80;59.10;;;;;;4883915;29;20056;-63
2022/07/25 07:45:12;;;;;;;9.32;5.72;;;26.00;58.70;;;;;;4883830;29;19923;-62
2022/07/25 07:47:39;;;;;;;8.07;5.50;;;26.00;58.50;;;;;;4886146;29;20048;-63
2022/07/25 07:50:08;;;;;;;10.30;5.45;;;26.20;56.60;;;;;;4879413;29;20056;-65
2022/07/25 07:52:35;;;;;;;13.03;6.30;;;26.40;56.20;;;;;;4887116;29;20053;-64
2022/07/25 07:57:49;;;;;;;7.80;5.38;;;26.70;55.80;;;;;;4879368;29;20052;-65
2022/07/25 08:00:17;;;;;;;9.93;5.40;;;26.90;55.20;;;;;;4879352;29;20037;-73
2022/07/25 08:02:45;;;;;;;8.07;5.03;;;27.00;54.90;;;;;;4884674;29;20492;-72
2022/07/25 08:05:13;;;;;;;9.45;5.68;;;27.10;54.80;;;;;;4888145;29;20060;-73
2022/07/25 08:07:40;;;;;;;9.73;5.40;;;27.30;54.70;;;;;;4886585;29;20145;-73
2022/07/25 08:10:09;;;;;;;9.05;5.47;;;27.40;54.50;;;;;;4886800;29;20049;-74
2022/07/25 08:12:41;;;;;;;8.40;5.50;;;27.60;54.10;;;;;;4881871;29;20049;-72
2022/07/25 08:15:10;;;;;;;8.77;5.55;;;27.60;53.90;;;;;;4886265;29;20852;-72
2022/07/25 08:17:37;;;;;;;7.20;4.78;;;27.80;53.70;;;;;;4888188;29;20059;-72
2022/07/25 08:20:07;;;;;;;6.63;4.40;;;28.00;53.10;;;;;;4877349;29;20056;-73
2022/07/25 08:22:38;;;;;;;8.25;5.05;;;28.10;53.10;;;;;;4875956;29;20056;-71
2022/07/25 08:25:07;;;;;;;7.38;4.63;;;28.20;52.40;;;;;;4876571;29;20060;-71
2022/07/25 08:27:34;;;;;;;8.27;5.15;;;28.30;52.30;;;;;;4877480;29;20068;-70
2022/07/25 08:30:01;;;;;;;7.72;4.55;;;28.40;52.90;;;;;;4868323;29;20044;-71
2022/07/25 08:32:30;;;;;;;7.50;4.90;;;28.60;52.00;;;;;;4876106;29;20053;-71
2022/07/25 08:34:58;;;;;;;8.13;5.07;;;28.70;51.80;;;;;;4868383;29;20059;-73
2022/07/25 08:37:25;;;;;;;7.72;5.68;;;28.70;51.70;;;;;;4879953;29;20053;-72
2022/07/25 08:39:52;;;;;;;10.95;5.28;;;28.80;51.60;;;;;;4875932;29;20116;-71
2022/07/25 08:42:20;;;;;;;9.10;5.15;;;29.00;51.30;;;;;;4878401;29;20064;-72
2022/07/25 08:44:55;;;;;;;7.80;5.15;;;29.10;50.70;;;;;;4876163;29;20061;-75
2022/07/25 08:47:23;;;;;;;6.85;4.82;;;29.30;50.70;;;;;;4886162;29;20055;-72
2022/07/25 08:49:51;;;;;;;6.32;4.47;;;29.40;50.10;;;;;;4882668;29;20519;-71
2022/07/25 08:52:19;;;;;;;8.02;5.00;;;29.50;49.70;;;;;;4884651;29;20136;-72
2022/07/25 08:54:47;;;;;;;7.50;5.25;;;29.50;49.80;;;;;;4884043;29;20041;-73
2022/07/25 08:57:14;;;;;;;6.50;4.40;;;29.60;49.30;;;;;;4875658;29;20113;-70
2022/07/25 08:59:42;;;;;;;7.72;4.82;;;29.70;49.10;;;;;;4887701;29;20053;-72
2022/07/25 09:02:12;;;;;;;7.60;4.78;;;29.80;48.80;;;;;;4885123;29;20049;-71
2022/07/25 09:04:40;;;;;;;7.50;4.93;;;29.90;48.40;;;;;;4890070;29;20056;-71
2022/07/25 09:07:08;;;;;;;7.93;5.00;;;30.00;47.80;;;;;;4867140;29;20053;-73
2022/07/25 09:09:37;;;;;;;6.90;4.65;;;30.20;47.40;;;;;;4875316;29;20444;-74
2022/07/25 09:12:04;;;;;;;;;;;30.20;47.50;;;;;;4875244;29;20827;-72
2022/07/25 09:14:40;;;;;;;7.65;4.80;;;30.20;47.10;;;;;;4876431;29;19933;-73
2022/07/25 09:17:07;;;;;;;6.32;4.25;;;30.40;47.10;;;;;;4883390;29;20083;-74
2022/07/25 09:19:34;;;;;;;9.77;4.60;;;30.40;46.60;;;;;;4881983;29;20089;-71
2022/07/25 09:22:05;;;;;;;8.88;5.40;;;30.50;46.50;;;;;;4888379;29;20055;-73
2022/07/25 09:24:34;;;;;;;7.35;4.88;;;30.50;46.20;;;;;;4876199;29;20057;-73
2022/07/25 09:27:01;;;;;;;;;;;30.60;45.50;;;;;;4878096;29;20615;-73
2022/07/25 09:29:32;;;;;;;7.80;5.07;;;30.70;45.00;;;;;;4876482;29;20014;-73
2022/07/25 09:32:01;;;;;;;7.90;4.97;;;30.80;44.90;;;;;;4869421;29;20053;-72
2022/07/25 09:34:33;;;;;;;7.70;5.05;;;30.90;44.20;;;;;;4884173;29;20056;-74
2022/07/25 09:37:01;;;;;;;7.72;5.13;;;30.90;44.40;;;;;;4879494;29;20058;-74
2022/07/25 09:39:39;;;;;;;7.43;4.88;;;31.00;43.60;;;;;;4880128;29;20523;-72
2022/07/25 09:42:21;;;;;;;9.10;5.55;;;31.10;44.00;;;;;;4885578;29;20063;-72
2022/07/25 09:45:04;;;;;;;8.85;5.63;;;31.20;43.90;;;;;;4884065;29;20061;-74
2022/07/25 09:47:32;;;;;;;8.93;5.47;;;31.30;43.30;;;;;;4885993;29;20048;-73
2022/07/25 09:49:59;;;;;;;6.90;4.85;;;31.50;43.00;;;;;;4884778;29;20049;-74
2022/07/25 09:52:26;;;;;;;6.93;4.55;;;31.50;42.70;;;;;;4884863;29;20559;-72
2022/07/25 09:54:54;;;;;;;7.43;5.22;;;31.50;42.50;;;;;;4884172;29;20065;-73
2022/07/25 09:57:22;;;;;;;7.25;5.20;;;31.50;42.20;;;;;;4878194;29;20581;-74
2022/07/25 09:59:49;;;;;;;7.93;4.90;;;31.60;41.70;;;;;;4881760;29;20426;-73
2022/07/25 10:02:26;;;;;;;8.48;5.63;;;31.80;41.70;;;;;;4879746;29;20084;-75
2022/07/25 10:05:07;;;;;;;11.57;6.20;;;31.90;42.10;;;;;;4880933;29;20147;-73
2022/07/25 10:07:37;;;;;;;9.43;5.90;;;31.90;42.00;;;;;;4882139;29;20051;-73
2022/07/25 10:10:07;;;;;;;11.15;6.53;;;32.00;41.90;;;;;;4886060;29;20407;-74
2022/07/25 10:12:33;;;;;;;10.25;7.30;;;32.10;41.40;;;;;;4885495;29;20063;-74
2022/07/25 10:15:07;;;;;;;10.18;6.20;;;32.20;41.00;;;;;;4885992;29;20118;-72
2022/07/25 10:17:35;;;;;;;7.80;5.53;;;32.30;41.20;;;;;;4876793;29;20080;-73
2022/07/25 10:20:05;;;;;;;8.95;6.00;;;32.40;41.10;;;;;;4866534;29;20037;-74
2022/07/25 10:22:39;;;;;;;8.35;5.50;;;32.40;41.00;;;;;;4871951;29;20562;-72
2022/07/25 10:25:16;;;;;;;8.40;5.80;;;32.50;41.00;;;;;;4875047;29;20075;-73
2022/07/25 10:27:47;;;;;;;8.00;4.80;;;32.50;40.40;;;;;;4876983;29;20053;-71
2022/07/25 10:30:22;;;;;;;8.02;4.97;;;32.60;40.60;;;;;;4887178;29;20112;-73
2022/07/25 10:32:51;;;;;;;6.57;4.53;;;32.60;39.80;;;;;;4884325;29;20067;-73
2022/07/25 10:35:18;;;;;;;9.50;4.75;;;32.80;39.80;;;;;;4867373;29;20339;-72
2022/07/25 10:37:46;;;;;;;7.15;4.68;;;32.70;39.30;;;;;;4869144;29;20049;-72
2022/07/25 10:40:26;;;;;;;7.82;4.93;;;32.80;39.30;;;;;;4882796;29;20048;-71
2022/07/25 10:43:00;;;;;;;7.63;4.55;;;32.90;39.40;;;;;;4875319;29;20330;-73
2022/07/25 10:45:38;;;;;;;8.30;5.03;;;33.00;39.20;;;;;;4883432;29;20052;-72
2022/07/25 10:48:08;;;;;;;7.10;4.63;;;33.00;39.10;;;;;;4884296;29;20124;-74
2022/07/25 10:50:35;;;;;;;6.75;4.45;;;33.10;39.00;;;;;;4878242;29;20048;-74
2022/07/25 10:53:06;;;;;;;5.72;4.03;;;33.10;39.00;;;;;;4879614;29;20487;-75
2022/07/25 10:55:36;;;;;;;6.93;4.40;;;33.20;38.70;;;;;;4877993;29;20057;-74
2022/07/25 10:58:05;;;;;;;7.85;4.43;;;33.30;38.50;;;;;;4878452;29;23280;-73
2022/07/25 11:00:33;;;;;;;7.53;4.75;;;33.20;38.80;;;;;;4877921;29;20052;-74
2022/07/25 11:03:00;;;;;;;7.03;4.80;;;33.20;38.30;;;;;;4878095;29;20165;-74
2022/07/25 11:05:28;;;;;;;7.32;4.53;;;33.10;38.30;;;;;;4877616;29;20060;-73
2022/07/25 11:07:56;;;;;;;;;;;33.20;38.40;;;;;;4879556;29;20084;-72
2022/07/25 11:10:27;;;;;;;7.50;4.20;;;33.20;38.50;;;;;;4884447;29;19931;-73
2022/07/25 11:12:56;;;;;;;6.00;4.45;;;33.10;38.50;;;;;;4883584;29;20067;-74
2022/07/25 11:15:24;;;;;;;7.45;4.82;;;33.20;38.20;;;;;;4884131;29;20052;-71
2022/07/25 11:17:52;;;;;;;5.30;3.85;;;33.30;38.20;;;;;;4882941;29;20066;-73
2022/07/25 11:20:19;;;;;;;9.82;4.05;;;33.30;37.80;;;;;;4887003;29;20144;-73
2022/07/25 11:22:53;;;;;;;8.55;4.20;;;33.40;36.80;;;;;;4881617;29;20055;-73
2022/07/25 11:25:22;;;;;;;6.78;4.25;;;33.40;36.10;;;;;;4878456;29;20067;-74
2022/07/25 11:27:58;;;;;;;5.28;3.58;;;33.40;36.70;;;;;;4877436;29;20128;-73
2022/07/25 11:30:27;;;;;;;5.95;3.90;;;33.40;36.80;;;;;;4876416;29;20072;-71
2022/07/25 11:32:56;;;;;;;6.82;3.45;;;33.40;36.40;;;;;;4878537;29;20054;-73
2022/07/25 11:35:26;;;;;;;6.82;4.15;;;33.40;35.40;;;;;;4877722;29;20053;-74
2022/07/25 11:37:54;;;;;;;7.68;3.63;;;33.40;35.50;;;;;;4878301;29;20444;-74
2022/07/25 11:40:22;;;;;;;5.47;3.58;;;33.40;35.50;;;;;;4880937;29;20067;-74
2022/07/25 11:42:51;;;;;;;5.73;4.20;;;33.50;35.70;;;;;;4875681;29;20063;-73
2022/07/25 11:45:23;;;;;;;8.80;4.10;;;33.30;36.50;;;;;;4879353;29;20503;-74
2022/07/25 11:48:04;;;;;;;5.45;3.78;;;33.20;35.70;;;;;;4876061;29;20575;-73
2022/07/25 11:50:32;;;;;;;7.03;4.93;;;33.30;36.00;;;;;;4885254;29;20064;-73
2022/07/25 11:53:00;;;;;;;7.93;4.78;;;33.30;36.10;;;;;;4881733;29;20064;-71
2022/07/25 11:55:30;;;;;;;10.25;5.60;;;33.30;36.40;;;;;;4877603;29;20045;-73
2022/07/25 11:57:59;;;;;;;8.00;5.15;;;33.30;36.10;;;;;;4882753;29;20052;-74
2022/07/25 12:00:29;;;;;;;11.25;4.88;;;33.30;36.20;;;;;;4882899;29;20056;-74
2022/07/25 12:03:06;;;;;;;8.48;5.07;;;33.40;36.20;;;;;;4877623;29;20440;-72
2022/07/25 12:05:33;;;;;;;7.47;4.28;;;33.50;36.50;;;;;;4873663;29;20156;-73
2022/07/25 12:08:09;;;;;;;5.90;3.80;;;33.60;36.10;;;;;;4878305;29;20192;-72
2022/07/25 12:10:37;;;;;;;6.85;4.57;;;33.60;36.40;;;;;;4872037;29;20065;-74
2022/07/25 12:13:05;;;;;;;5.67;4.23;;;33.60;35.80;;;;;;4871265;29;20139;-71
2022/07/25 12:15:37;;;;;;;5.47;3.72;;;33.60;35.80;;;;;;4886200;29;20120;-73
2022/07/25 12:18:06;;;;;;;6.50;3.83;;;33.70;35.40;;;;;;4885225;29;20052;-72
2022/07/25 12:20:35;;;;;;;6.82;3.80;;;33.70;35.10;;;;;;4885494;29;20434;-72
2022/07/25 12:23:04;;;;;;;6.25;3.65;;;33.80;35.60;;;;;;4886799;29;20344;-73
2022/07/25 12:25:31;;;;;;;8.07;4.03;;;33.70;35.30;;;;;;4887710;29;20052;-73
2022/07/25 12:27:59;;;;;;;7.47;4.63;;;33.70;35.40;;;;;;4877868;29;20407;-72
2022/07/25 12:30:27;;;;;;;6.75;3.78;;;33.60;35.80;;;;;;4886565;29;21436;-74
2022/07/25 12:32:56;;;;;;;6.13;4.10;;;33.50;36.00;;;;;;4890255;29;20064;-70
2022/07/25 12:35:24;;;;;;;9.13;4.60;;;33.40;36.50;;;;;;4886511;29;20056;-72
2022/07/25 12:37:52;;;;;;;6.07;3.90;;;33.40;35.90;;;;;;4889489;29;20115;-73
2022/07/25 12:40:20;;;;;;;7.22;4.78;;;33.40;36.70;;;;;;4880517;29;20395;-74
2022/07/25 12:42:47;;;;;;;7.03;4.20;;;33.40;36.40;;;;;;4879130;29;20064;-73
2022/07/25 12:45:16;;;;;;;11.52;4.40;;;33.50;36.00;;;;;;4891465;29;20076;-74
2022/07/25 12:47:44;;;;;;;7.43;3.92;;;33.50;36.00;;;;;;4879318;29;20057;-72
2022/07/25 12:50:13;;;;;;;5.75;3.80;;;33.50;35.50;;;;;;4884135;29;20041;-74
2022/07/25 12:52:40;;;;;;;5.85;3.65;;;33.40;35.40;;;;;;4880040;29;20068;-74